Time;durP1;ratioP1;P1;durP2;ratioP2;P2;SDS_P1;SDS_P2;PMS_P1;PMS_P2;Temp;Humidity;BMP_temperature;BMP_pressure;BME280_temperature;BME280_humidity;BME280_pressure;Samples;Min_cycle;Max_cycle;Signal;HPM_P1;HPM_P2
2023/10/30 00:01:39;;;;;;;2.97;0.83;;;12.80;99.90;;;;;;5052437;28;20590;-56
2023/10/30 00:04:08;;;;;;;0.53;0.53;;;12.90;99.90;;;;;;5052859;28;20198;-57
2023/10/30 00:06:34;;;;;;;1.23;0.67;;;12.90;99.90;;;;;;5052735;28;20231;-56
2023/10/30 00:08:59;;;;;;;0.53;0.50;;;12.90;99.90;;;;;;5048574;28;20342;-57
2023/10/30 00:11:25;;;;;;;0.90;0.90;;;13.00;99.90;;;;;;5051730;28;20199;-56
2023/10/30 00:13:50;;;;;;;3.00;0.80;;;12.90;99.90;;;;;;5052241;28;20216;-57
2023/10/30 00:16:16;;;;;;;0.70;0.70;;;12.90;99.90;;;;;;5074024;28;20276;-59
2023/10/30 00:18:42;;;;;;;2.47;0.70;;;13.00;99.90;;;;;;5052418;28;20572;-71
2023/10/30 00:21:08;;;;;;;0.40;0.40;;;13.00;99.90;;;;;;5052079;28;20621;-72
2023/10/30 00:23:34;;;;;;;3.90;1.90;;;13.00;99.90;;;;;;5044087;28;20227;-58
2023/10/30 00:26:00;;;;;;;0.70;0.53;;;13.10;99.90;;;;;;5053953;28;20753;-58
2023/10/30 00:28:27;;;;;;;1.30;0.60;;;13.10;99.90;;;;;;5046732;28;20225;-56
2023/10/30 00:30:53;;;;;;;1.07;0.47;;;13.10;99.90;;;;;;5052193;28;20193;-56
2023/10/30 00:33:19;;;;;;;0.53;0.40;;;13.10;99.90;;;;;;5052152;28;20206;-56
2023/10/30 00:35:44;;;;;;;0.43;0.43;;;13.10;99.90;;;;;;5045811;28;21010;-56
2023/10/30 00:38:10;;;;;;;1.00;0.80;;;13.10;99.90;;;;;;5052017;28;20208;-56
2023/10/30 00:40:35;;;;;;;1.90;0.80;;;13.10;99.90;;;;;;5053570;28;20568;-56
2023/10/30 00:43:01;;;;;;;2.00;0.80;;;13.20;99.90;;;;;;5048685;28;20228;-55
2023/10/30 00:45:26;;;;;;;0.50;0.50;;;13.20;99.90;;;;;;5047990;28;20578;-55
2023/10/30 00:47:52;;;;;;;1.23;0.60;;;13.10;99.90;;;;;;5050750;28;20197;-56
2023/10/30 00:50:17;;;;;;;1.57;1.00;;;13.10;99.90;;;;;;5051385;28;21067;-57
2023/10/30 00:52:43;;;;;;;1.83;0.83;;;13.20;99.90;;;;;;5048463;28;20218;-56
2023/10/30 00:55:08;;;;;;;1.07;0.40;;;13.20;99.90;;;;;;5052327;28;20275;-56
2023/10/30 00:57:34;;;;;;;0.63;0.50;;;13.20;99.90;;;;;;5049471;28;20235;-54
2023/10/30 00:59:59;;;;;;;1.77;0.73;;;13.20;99.90;;;;;;5051607;28;20777;-55
2023/10/30 01:02:25;;;;;;;1.33;0.50;;;13.10;99.90;;;;;;5051816;28;20914;-55
2023/10/30 01:04:50;;;;;;;2.30;0.90;;;13.10;99.90;;;;;;5051513;28;20208;-55
2023/10/30 01:07:16;;;;;;;0.40;0.40;;;13.20;99.90;;;;;;5049849;28;20200;-56
2023/10/30 01:09:43;;;;;;;1.70;0.70;;;13.20;99.90;;;;;;5053126;28;20197;-56
2023/10/30 01:12:09;;;;;;;1.40;0.50;;;13.20;99.90;;;;;;5052350;28;20284;-56
2023/10/30 01:14:34;;;;;;;0.50;0.50;;;13.20;99.90;;;;;;5051636;28;20674;-57
2023/10/30 01:17:00;;;;;;;1.03;0.40;;;13.20;99.90;;;;;;5068646;28;20208;-56
2023/10/30 01:19:25;;;;;;;0.93;0.43;;;13.20;99.90;;;;;;5051894;28;20243;-57
2023/10/30 01:21:51;;;;;;;0.67;0.67;;;13.20;99.90;;;;;;5049966;28;20264;-57
2023/10/30 01:24:17;;;;;;;1.13;1.00;;;13.20;99.90;;;;;;5059537;28;20702;-56
2023/10/30 01:26:42;;;;;;;1.87;0.90;;;13.20;99.90;;;;;;5056359;28;20271;-57
2023/10/30 01:29:08;;;;;;;2.87;0.50;;;13.20;99.90;;;;;;5055842;28;20194;-55
2023/10/30 01:31:33;;;;;;;3.23;0.70;;;13.20;99.90;;;;;;5058076;28;20705;-56
2023/10/30 01:33:59;;;;;;;0.60;0.60;;;13.20;99.90;;;;;;5058065;28;20932;-57
2023/10/30 01:36:24;;;;;;;0.60;0.60;;;13.20;99.90;;;;;;5057993;28;20195;-56
2023/10/30 01:38:50;;;;;;;1.33;0.60;;;13.10;99.90;;;;;;5077120;28;20203;-56
2023/10/30 01:41:15;;;;;;;2.23;0.70;;;13.10;99.90;;;;;;5057442;28;20617;-56
2023/10/30 01:43:41;;;;;;;1.13;0.60;;;13.10;99.90;;;;;;5055903;28;20204;-57
2023/10/30 01:46:07;;;;;;;2.27;1.20;;;13.20;99.90;;;;;;5054809;28;20648;-57
2023/10/30 01:48:33;;;;;;;1.43;1.00;;;13.10;99.90;;;;;;5056529;28;20195;-57
2023/10/30 01:51:01;;;;;;;0.97;0.70;;;13.10;99.90;;;;;;5057786;28;20198;-58
2023/10/30 01:53:28;;;;;;;3.23;0.70;;;13.10;99.90;;;;;;5057756;28;20204;-57
2023/10/30 01:55:55;;;;;;;0.97;0.50;;;13.10;99.90;;;;;;5059815;28;20744;-57
2023/10/30 01:58:22;;;;;;;3.13;0.77;;;13.00;99.90;;;;;;5050069;28;20197;-57
2023/10/30 02:00:48;;;;;;;0.33;0.33;;;13.00;99.90;;;;;;5053655;28;20205;-57
2023/10/30 02:03:14;;;;;;;2.00;0.60;;;13.00;99.90;;;;;;5055129;28;21644;-57
2023/10/30 02:05:40;;;;;;;1.60;1.00;;;13.00;99.90;;;;;;5056413;28;20201;-57
2023/10/30 02:08:07;;;;;;;2.10;0.80;;;13.00;99.90;;;;;;5053426;28;20237;-58
2023/10/30 02:10:32;;;;;;;0.53;0.53;;;13.00;99.90;;;;;;5051861;28;20242;-57
2023/10/30 02:12:58;;;;;;;3.80;0.80;;;13.00;99.90;;;;;;5054777;28;20279;-57
2023/10/30 02:15:23;;;;;;;2.43;0.93;;;13.00;99.90;;;;;;5059237;28;20193;-57
2023/10/30 02:17:49;;;;;;;0.50;0.50;;;13.00;99.90;;;;;;5055487;28;20220;-57
2023/10/30 02:20:15;;;;;;;2.70;0.87;;;13.10;99.90;;;;;;5053390;28;20226;-56
2023/10/30 02:22:41;;;;;;;2.73;1.07;;;13.10;99.90;;;;;;5057204;28;20233;-57
2023/10/30 02:25:06;;;;;;;2.57;0.67;;;13.00;99.90;;;;;;5055629;28;20200;-56
2023/10/30 02:27:32;;;;;;;0.30;0.30;;;13.00;99.90;;;;;;5053622;28;20290;-56
2023/10/30 02:29:58;;;;;;;0.33;0.33;;;13.00;99.90;;;;;;5058212;28;20678;-56
2023/10/30 02:32:24;;;;;;;1.90;0.80;;;13.00;99.90;;;;;;5054185;28;20641;-57
2023/10/30 02:34:49;;;;;;;0.73;0.70;;;13.00;99.90;;;;;;5053161;28;20314;-57
2023/10/30 02:37:15;;;;;;;0.63;0.63;;;13.00;99.90;;;;;;5053228;28;20982;-66
2023/10/30 02:39:40;;;;;;;2.87;0.90;;;13.10;99.90;;;;;;5054821;28;20216;-69
2023/10/30 02:42:06;;;;;;;2.53;0.47;;;12.90;99.90;;;;;;5053658;28;20229;-58
2023/10/30 02:44:32;;;;;;;1.90;0.60;;;13.00;99.90;;;;;;5052008;28;20648;-56
2023/10/30 02:46:58;;;;;;;1.37;0.80;;;13.10;99.90;;;;;;5054674;28;20664;-56
2023/10/30 02:49:25;;;;;;;0.67;0.40;;;13.10;99.90;;;;;;5055770;28;20235;-55
2023/10/30 02:51:50;;;;;;;1.90;0.70;;;13.10;99.90;;;;;;5053155;28;20209;-56
2023/10/30 02:54:16;;;;;;;1.83;0.80;;;13.10;99.90;;;;;;5051721;28;20693;-56
2023/10/30 02:56:41;;;;;;;1.60;0.63;;;13.10;99.90;;;;;;5054292;28;20909;-55
2023/10/30 02:59:07;;;;;;;2.73;0.90;;;13.10;99.90;;;;;;5052391;28;20689;-57
2023/10/30 03:01:33;;;;;;;1.70;0.77;;;13.10;99.90;;;;;;5050127;28;20283;-55
2023/10/30 03:04:00;;;;;;;1.57;0.60;;;13.00;99.90;;;;;;5053837;28;20498;-55
2023/10/30 03:06:26;;;;;;;0.80;0.80;;;13.10;99.90;;;;;;5052923;28;20627;-57
2023/10/30 03:08:52;;;;;;;1.97;1.00;;;13.00;99.90;;;;;;5055499;28;20200;-55
2023/10/30 03:11:17;;;;;;;1.00;0.67;;;13.00;99.90;;;;;;5053834;28;20203;-58
2023/10/30 03:13:43;;;;;;;1.47;0.30;;;13.10;99.90;;;;;;5053430;28;20200;-56
2023/10/30 03:16:08;;;;;;;3.80;0.73;;;13.10;99.90;;;;;;5053386;28;20227;-56
2023/10/30 03:18:34;;;;;;;1.50;0.50;;;13.00;99.90;;;;;;5053145;28;20325;-56
2023/10/30 03:21:00;;;;;;;1.40;0.83;;;13.00;99.90;;;;;;5053231;28;20223;-57
2023/10/30 03:23:25;;;;;;;4.97;0.70;;;13.10;99.90;;;;;;5082389;28;20222;-57
2023/10/30 03:25:51;;;;;;;3.50;0.80;;;13.10;99.90;;;;;;5053110;28;20633;-57
2023/10/30 03:28:16;;;;;;;0.50;0.40;;;13.10;99.90;;;;;;5049057;28;20258;-56
2023/10/30 03:30:42;;;;;;;3.50;0.80;;;13.10;99.90;;;;;;5053140;28;20219;-56
2023/10/30 03:33:08;;;;;;;2.20;0.60;;;13.00;99.90;;;;;;5053008;28;20249;-56
2023/10/30 03:35:38;;;;;;;2.03;0.50;;;13.00;99.90;;;;;;5048713;28;20199;-56
2023/10/30 03:38:04;;;;;;;1.80;0.80;;;12.90;99.90;;;;;;5049676;28;20198;-56
2023/10/30 03:40:30;;;;;;;3.07;1.00;;;13.00;99.90;;;;;;5054838;28;20200;-56
2023/10/30 03:42:55;;;;;;;2.63;0.83;;;13.10;99.90;;;;;;5052792;28;20216;-56
2023/10/30 03:45:20;;;;;;;2.30;0.60;;;13.00;99.90;;;;;;5048554;28;20702;-56
2023/10/30 03:47:46;;;;;;;1.40;0.73;;;13.10;99.90;;;;;;5051844;28;20319;-57
2023/10/30 03:50:13;;;;;;;2.23;0.93;;;13.00;99.90;;;;;;5051528;28;20722;-58
2023/10/30 03:52:40;;;;;;;0.90;0.50;;;13.00;99.90;;;;;;5052559;28;20725;-57
2023/10/30 03:55:06;;;;;;;3.40;0.60;;;13.00;99.90;;;;;;5053682;28;20635;-57
2023/10/30 03:57:31;;;;;;;1.17;0.90;;;13.00;99.90;;;;;;5049001;28;20229;-56
2023/10/30 03:59:57;;;;;;;2.13;0.87;;;13.00;99.90;;;;;;5050480;28;20737;-56
2023/10/30 04:02:23;;;;;;;3.37;0.73;;;13.00;99.90;;;;;;5052289;28;20222;-57
2023/10/30 04:04:48;;;;;;;0.70;0.53;;;13.00;99.90;;;;;;5051041;28;20259;-56
2023/10/30 04:07:14;;;;;;;1.80;0.93;;;13.00;99.90;;;;;;5054544;28;20416;-57
2023/10/30 04:09:40;;;;;;;3.53;0.80;;;13.00;99.90;;;;;;5053182;28;20212;-56
2023/10/30 04:12:05;;;;;;;1.53;0.87;;;13.00;99.90;;;;;;5052596;28;20209;-56
2023/10/30 04:14:31;;;;;;;0.87;0.70;;;13.10;99.90;;;;;;5052600;28;20200;-57
2023/10/30 04:17:02;;;;;;;1.47;0.67;;;13.10;99.90;;;;;;5052109;28;20199;-56
2023/10/30 04:19:28;;;;;;;2.30;0.73;;;13.10;99.90;;;;;;5075574;28;20190;-66
2023/10/30 04:21:53;;;;;;;1.40;0.70;;;13.10;99.90;;;;;;5051673;28;20289;-67
2023/10/30 04:24:19;;;;;;;1.13;0.80;;;13.10;99.90;;;;;;5052454;28;20678;-57
2023/10/30 04:26:44;;;;;;;3.37;1.03;;;13.00;99.90;;;;;;5049437;28;20741;-57
2023/10/30 04:29:10;;;;;;;1.40;0.70;;;13.00;99.90;;;;;;5047442;28;20219;-57
2023/10/30 04:31:36;;;;;;;1.47;0.60;;;13.00;99.90;;;;;;5048123;28;20200;-62
2023/10/30 04:34:01;;;;;;;2.07;0.87;;;13.00;99.90;;;;;;5044493;28;20287;-57
2023/10/30 04:36:27;;;;;;;1.97;0.90;;;12.90;99.90;;;;;;5046504;28;20204;-57
2023/10/30 04:38:56;;;;;;;1.23;1.00;;;12.90;99.90;;;;;;5045942;28;20701;-62
2023/10/30 04:41:21;;;;;;;7.93;1.00;;;12.90;99.90;;;;;;5046329;28;20963;-56
2023/10/30 04:43:46;;;;;;;2.87;0.90;;;13.00;99.90;;;;;;5043904;28;20256;-62
2023/10/30 04:46:12;;;;;;;6.23;1.10;;;13.00;99.90;;;;;;5040094;28;20216;-60
2023/10/30 04:48:38;;;;;;;7.07;1.00;;;13.00;99.90;;;;;;5045556;28;20233;-56
2023/10/30 04:51:07;;;;;;;1.17;0.87;;;12.90;99.90;;;;;;5043262;28;20271;-56
2023/10/30 04:53:33;;;;;;;0.80;0.70;;;12.90;99.90;;;;;;5046267;28;20253;-57
2023/10/30 04:56:00;;;;;;;2.23;1.83;;;13.00;99.90;;;;;;5043499;28;20192;-59
2023/10/30 04:58:25;;;;;;;2.83;1.23;;;13.00;99.90;;;;;;5043462;28;20199;-58
2023/10/30 05:00:51;;;;;;;2.40;1.37;;;13.00;99.90;;;;;;5044341;28;20204;-58
2023/10/30 05:03:16;;;;;;;1.33;0.70;;;13.00;99.90;;;;;;5046694;28;20288;-58
2023/10/30 05:05:42;;;;;;;2.33;0.80;;;13.00;99.90;;;;;;5041066;28;20668;-57
2023/10/30 05:08:08;;;;;;;1.90;1.80;;;13.00;99.90;;;;;;5044189;28;20542;-56
2023/10/30 05:10:33;;;;;;;2.40;1.30;;;12.90;99.90;;;;;;5042363;28;20192;-56
2023/10/30 05:12:59;;;;;;;2.23;1.43;;;12.80;99.90;;;;;;5041914;28;20223;-57
2023/10/30 05:15:24;;;;;;;5.93;1.03;;;12.80;99.90;;;;;;5046611;28;20742;-56
2023/10/30 05:17:50;;;;;;;3.47;1.23;;;12.80;99.90;;;;;;5044764;28;20211;-57
2023/10/30 05:20:15;;;;;;;2.23;0.70;;;12.80;99.90;;;;;;5048049;28;20198;-72
2023/10/30 05:22:44;;;;;;;2.93;1.00;;;12.80;99.90;;;;;;5042574;28;20228;-58
2023/10/30 05:25:09;;;;;;;1.90;0.93;;;12.70;99.90;;;;;;5047210;28;20687;-56
2023/10/30 05:27:35;;;;;;;1.50;0.60;;;12.70;99.90;;;;;;5042428;28;20213;-56
2023/10/30 05:30:01;;;;;;;2.43;0.90;;;12.70;99.90;;;;;;5051429;28;20218;-57
2023/10/30 05:32:26;;;;;;;4.10;0.93;;;12.70;99.90;;;;;;5050729;28;20719;-57
2023/10/30 05:34:52;;;;;;;4.17;0.83;;;12.70;99.90;;;;;;5049582;28;20231;-55
2023/10/30 05:37:19;;;;;;;2.40;1.40;;;12.70;99.90;;;;;;5051011;28;20300;-56
2023/10/30 05:39:44;;;;;;;1.80;0.73;;;12.70;99.90;;;;;;5049796;28;20537;-55
2023/10/30 05:42:10;;;;;;;2.13;0.80;;;12.60;99.90;;;;;;5050706;28;20225;-57
2023/10/30 05:44:36;;;;;;;4.00;1.17;;;12.70;99.90;;;;;;5047882;28;20204;-56
2023/10/30 05:47:02;;;;;;;1.20;0.60;;;12.70;99.90;;;;;;5051105;28;20197;-57
2023/10/30 05:49:28;;;;;;;2.37;1.00;;;12.60;99.90;;;;;;5047202;28;20247;-56
2023/10/30 05:51:54;;;;;;;0.80;0.70;;;12.60;99.90;;;;;;5051614;28;20801;-56
2023/10/30 05:54:20;;;;;;;2.70;1.23;;;12.60;99.90;;;;;;5052502;28;20201;-55
2023/10/30 05:56:45;;;;;;;0.80;0.80;;;12.60;99.90;;;;;;5048532;28;20212;-55
2023/10/30 05:59:11;;;;;;;4.43;1.10;;;12.60;99.90;;;;;;5049712;28;21027;-57
2023/10/30 06:01:37;;;;;;;2.57;1.17;;;12.60;99.90;;;;;;5050877;28;20278;-56
2023/10/30 06:04:02;;;;;;;2.63;0.87;;;12.60;99.90;;;;;;5049444;28;20204;-57
2023/10/30 06:06:28;;;;;;;1.63;0.90;;;12.60;99.90;;;;;;5053144;28;20255;-57
2023/10/30 06:08:54;;;;;;;1.70;0.90;;;12.60;99.90;;;;;;5047620;28;20590;-62
2023/10/30 06:11:20;;;;;;;2.73;1.00;;;12.60;99.90;;;;;;5053809;28;20200;-57
2023/10/30 06:13:45;;;;;;;3.17;1.60;;;12.70;99.90;;;;;;5054798;28;20219;-57
2023/10/30 06:16:21;;;;;;;4.03;1.37;;;12.70;99.90;;;;;;5051375;28;20211;-57
2023/10/30 06:18:47;;;;;;;2.30;0.73;;;12.60;99.90;;;;;;5054707;28;20197;-57
2023/10/30 06:21:16;;;;;;;2.80;1.20;;;12.60;99.90;;;;;;5050917;28;20223;-57
2023/10/30 06:23:41;;;;;;;2.87;0.80;;;12.70;99.90;;;;;;5054058;28;20303;-57
2023/10/30 06:26:12;;;;;;;5.57;0.80;;;12.60;99.90;;;;;;5054545;28;20197;-56
2023/10/30 06:28:38;;;;;;;1.40;1.00;;;12.60;99.90;;;;;;5051400;28;20234;-57
2023/10/30 06:31:12;;;;;;;2.47;1.20;;;12.60;99.90;;;;;;5056258;28;20210;-57
2023/10/30 06:33:37;;;;;;;3.13;1.50;;;12.60;99.90;;;;;;5051030;28;20404;-56
2023/10/30 06:36:03;;;;;;;2.10;0.83;;;12.70;99.90;;;;;;5054459;28;20196;-56
2023/10/30 06:38:28;;;;;;;5.47;0.97;;;12.70;99.90;;;;;;5049954;28;20193;-55
2023/10/30 06:40:54;;;;;;;3.20;1.07;;;12.70;99.90;;;;;;5050048;28;20777;-57
2023/10/30 06:43:20;;;;;;;1.87;1.00;;;12.80;99.90;;;;;;5058139;28;20200;-56
2023/10/30 06:45:45;;;;;;;3.83;1.17;;;12.80;99.90;;;;;;5053256;28;20191;-56
2023/10/30 06:48:11;;;;;;;4.63;1.13;;;12.80;99.90;;;;;;5060509;28;20198;-56
2023/10/30 06:50:36;;;;;;;2.27;1.20;;;12.80;99.90;;;;;;5057189;28;20197;-56
2023/10/30 06:53:02;;;;;;;3.03;1.27;;;12.80;99.90;;;;;;5052898;28;20352;-56
2023/10/30 06:55:27;;;;;;;4.63;1.50;;;12.80;99.90;;;;;;5058835;28;20272;-56
2023/10/30 06:57:53;;;;;;;2.27;0.90;;;12.90;99.90;;;;;;5054944;28;20674;-56
2023/10/30 07:00:19;;;;;;;3.13;1.10;;;12.90;99.90;;;;;;5056499;28;20196;-56
2023/10/30 07:02:45;;;;;;;1.67;1.57;;;12.90;99.90;;;;;;5061504;28;20934;-56
2023/10/30 07:05:11;;;;;;;1.80;1.07;;;13.00;99.90;;;;;;5082778;28;20284;-56
2023/10/30 07:07:36;;;;;;;5.20;1.40;;;13.10;99.90;;;;;;5061916;28;20236;-56
2023/10/30 07:10:02;;;;;;;1.20;0.70;;;13.10;99.90;;;;;;5055581;28;20570;-57
2023/10/30 07:12:28;;;;;;;7.60;1.90;;;13.20;99.90;;;;;;5057867;28;20208;-57
2023/10/30 07:14:54;;;;;;;7.97;1.57;;;13.20;99.90;;;;;;5054161;28;20193;-57
2023/10/30 07:17:20;;;;;;;3.07;1.40;;;13.20;99.90;;;;;;5061843;28;20201;-58
2023/10/30 07:19:46;;;;;;;3.50;1.10;;;13.30;99.90;;;;;;5053991;28;20208;-58
2023/10/30 07:22:12;;;;;;;3.87;1.33;;;13.30;99.90;;;;;;5061406;28;20238;-58
2023/10/30 07:24:37;;;;;;;2.87;1.10;;;13.30;99.90;;;;;;5061593;28;20315;-58
2023/10/30 07:27:03;;;;;;;8.73;1.60;;;13.40;99.90;;;;;;5053613;28;20276;-57
2023/10/30 07:29:29;;;;;;;3.23;1.07;;;13.40;99.90;;;;;;5046484;28;20200;-56
2023/10/30 07:31:55;;;;;;;2.87;0.87;;;13.40;99.90;;;;;;5061242;28;20198;-64
2023/10/30 07:34:21;;;;;;;2.10;0.83;;;13.40;99.90;;;;;;5051809;28;20764;-60
2023/10/30 07:36:47;;;;;;;7.67;1.40;;;13.40;99.90;;;;;;5051513;28;20185;-57
2023/10/30 07:39:14;;;;;;;3.20;0.97;;;13.50;99.90;;;;;;5055392;28;20186;-57
2023/10/30 07:41:39;;;;;;;1.83;0.93;;;13.50;99.90;;;;;;5054172;28;20214;-57
2023/10/30 07:44:07;;;;;;;2.60;1.17;;;13.50;99.90;;;;;;5047751;28;20177;-56
2023/10/30 07:46:32;;;;;;;4.13;0.90;;;13.50;99.90;;;;;;5054128;28;20195;-56
2023/10/30 07:48:58;;;;;;;1.73;0.63;;;13.50;99.90;;;;;;5052220;28;20316;-57
2023/10/30 07:51:23;;;;;;;2.73;1.17;;;13.60;99.90;;;;;;5055512;28;20216;-56
2023/10/30 07:53:49;;;;;;;3.10;1.20;;;13.60;99.90;;;;;;5057209;28;20657;-56
2023/10/30 07:56:15;;;;;;;3.47;1.00;;;13.60;99.90;;;;;;5060890;28;20200;-57
2023/10/30 07:58:40;;;;;;;2.73;1.50;;;13.60;99.90;;;;;;5060953;28;20213;-56
2023/10/30 08:01:06;;;;;;;2.73;1.03;;;13.80;99.90;;;;;;5056370;28;20203;-57
2023/10/30 08:03:32;;;;;;;1.33;0.93;;;13.80;99.90;;;;;;5054520;28;20204;-56
2023/10/30 08:06:00;;;;;;;2.87;0.87;;;13.80;99.90;;;;;;5054372;28;20202;-56
2023/10/30 08:08:27;;;;;;;3.17;0.90;;;13.80;99.90;;;;;;5058785;28;20205;-56
2023/10/30 08:10:53;;;;;;;1.80;0.93;;;13.90;99.90;;;;;;5052936;28;20212;-56
2023/10/30 08:13:19;;;;;;;3.00;1.20;;;13.90;99.90;;;;;;5052122;28;20219;-56
2023/10/30 08:15:44;;;;;;;8.00;1.47;;;13.80;99.90;;;;;;5055378;28;20195;-56
2023/10/30 08:18:10;;;;;;;2.63;1.00;;;14.00;99.90;;;;;;5055550;28;20596;-57
2023/10/30 08:20:36;;;;;;;6.67;1.40;;;14.00;99.90;;;;;;5050399;28;20723;-58
2023/10/30 08:23:01;;;;;;;3.67;1.33;;;14.00;99.90;;;;;;5054275;28;20229;-57
2023/10/30 08:25:27;;;;;;;4.37;1.10;;;14.00;99.90;;;;;;5052409;28;20772;-57
2023/10/30 08:27:52;;;;;;;3.37;1.00;;;14.00;99.90;;;;;;5049492;28;20201;-57
2023/10/30 08:30:18;;;;;;;3.73;1.43;;;14.00;99.90;;;;;;5060391;28;20591;-57
2023/10/30 08:32:44;;;;;;;4.67;1.43;;;14.10;99.90;;;;;;5059488;28;21114;-57
2023/10/30 08:35:09;;;;;;;1.93;1.13;;;14.20;99.90;;;;;;5061790;28;20194;-57
2023/10/30 08:37:35;;;;;;;3.93;1.13;;;14.20;99.90;;;;;;5061200;28;20208;-57
2023/10/30 08:40:00;;;;;;;2.50;2.17;;;14.20;99.90;;;;;;5079602;28;20195;-57
2023/10/30 08:42:26;;;;;;;2.10;1.13;;;14.20;99.90;;;;;;5047940;28;20224;-57
2023/10/30 08:44:52;;;;;;;4.00;1.37;;;14.20;99.90;;;;;;5049659;28;20193;-57
2023/10/30 08:47:17;;;;;;;4.73;1.27;;;14.20;99.90;;;;;;5060313;28;20202;-57
2023/10/30 08:49:43;;;;;;;2.50;1.27;;;14.30;99.90;;;;;;5059218;28;20189;-56
2023/10/30 08:52:09;;;;;;;2.93;0.93;;;14.30;99.90;;;;;;5052262;28;20204;-56
2023/10/30 08:54:34;;;;;;;5.87;1.20;;;14.30;99.90;;;;;;5056385;28;20193;-56
2023/10/30 08:57:00;;;;;;;1.07;0.90;;;14.30;99.90;;;;;;5061929;28;20934;-56
2023/10/30 08:59:25;;;;;;;4.03;1.10;;;14.40;99.90;;;;;;5057753;28;20184;-57
2023/10/30 09:01:51;;;;;;;4.77;1.40;;;14.40;99.90;;;;;;5059249;28;20295;-71
2023/10/30 09:04:16;;;;;;;3.90;1.10;;;14.50;99.90;;;;;;5053055;28;20174;-58
2023/10/30 09:06:42;;;;;;;2.83;2.37;;;14.50;99.90;;;;;;5060338;28;20973;-59
2023/10/30 09:09:09;;;;;;;4.37;1.67;;;14.50;99.90;;;;;;5055093;28;20175;-59
2023/10/30 09:11:34;;;;;;;6.20;1.67;;;14.60;99.90;;;;;;5046926;28;20187;-61
2023/10/30 09:14:00;;;;;;;5.73;1.10;;;14.70;99.90;;;;;;5059865;28;20180;-59
2023/10/30 09:16:26;;;;;;;4.67;0.97;;;14.70;99.90;;;;;;5059232;28;20203;-59
2023/10/30 09:18:53;;;;;;;2.47;1.00;;;14.70;99.90;;;;;;5058724;28;20322;-58
2023/10/30 09:21:20;;;;;;;3.00;1.37;;;14.60;99.90;;;;;;5047787;28;20237;-62
2023/10/30 09:23:46;;;;;;;4.13;1.60;;;14.80;99.90;;;;;;5047888;28;20704;-62
2023/10/30 09:26:11;;;;;;;3.03;1.20;;;14.80;99.90;;;;;;5040864;28;20201;-61
2023/10/30 09:28:37;;;;;;;2.97;0.97;;;14.80;99.90;;;;;;5046494;28;20208;-60
2023/10/30 09:31:03;;;;;;;4.87;1.93;;;14.90;99.90;;;;;;5049031;28;20190;-59
2023/10/30 09:33:28;;;;;;;4.07;1.50;;;15.00;99.90;;;;;;5041354;28;20206;-58
2023/10/30 09:35:54;;;;;;;2.17;1.00;;;15.00;99.90;;;;;;5042364;28;20214;-58
2023/10/30 09:38:19;;;;;;;1.77;0.97;;;15.10;99.90;;;;;;5043448;28;20186;-58
2023/10/30 09:41:12;;;;;;;4.00;0.97;;;15.20;99.90;;;;;;5047053;28;21025;-59
2023/10/30 09:43:38;;;;;;;6.73;1.40;;;15.20;99.90;;;;;;5046246;28;20210;-64
2023/10/30 09:46:07;;;;;;;3.77;0.83;;;15.20;99.90;;;;;;5051688;28;20885;-67
2023/10/30 09:48:36;;;;;;;1.27;0.90;;;15.20;99.90;;;;;;5054755;28;20214;-59
2023/10/30 09:51:03;;;;;;;3.10;2.13;;;15.30;99.90;;;;;;5049262;28;20227;-61
2023/10/30 09:53:29;;;;;;;3.60;1.37;;;15.40;99.90;;;;;;5045466;28;20200;-62
2023/10/30 09:55:56;;;;;;;0.87;0.70;;;15.50;99.90;;;;;;5049678;28;20205;-61
2023/10/30 09:58:25;;;;;;;4.03;1.00;;;15.50;99.90;;;;;;5052549;28;20753;-59
2023/10/30 10:00:51;;;;;;;3.47;1.07;;;15.50;99.90;;;;;;5046972;28;20383;-58
2023/10/30 10:03:17;;;;;;;3.37;1.23;;;15.40;99.90;;;;;;5053200;28;20225;-64
2023/10/30 10:05:42;;;;;;;4.07;1.33;;;15.30;99.90;;;;;;5048341;28;20304;-63
2023/10/30 10:08:08;;;;;;;2.23;1.00;;;15.40;99.90;;;;;;5050239;28;21696;-63
2023/10/30 10:10:53;;;;;;;6.20;1.47;;;15.30;99.90;;;;;;5048519;28;20290;-63
2023/10/30 10:13:18;;;;;;;3.27;1.40;;;15.40;99.90;;;;;;5053367;28;20988;-61
2023/10/30 10:15:44;;;;;;;1.83;0.90;;;15.60;99.90;;;;;;5048411;28;20520;-64
2023/10/30 10:18:26;;;;;;;3.13;1.10;;;15.60;99.90;;;;;;5048987;28;20195;-64
2023/10/30 10:21:11;;;;;;;2.73;1.10;;;15.70;99.90;;;;;;5051598;28;20201;-62
2023/10/30 10:23:37;;;;;;;6.43;1.30;;;15.80;99.90;;;;;;5051018;28;20226;-61
2023/10/30 10:26:17;;;;;;;6.23;1.43;;;15.90;99.90;;;;;;5052074;28;20248;-59
2023/10/30 10:28:45;;;;;;;3.30;1.20;;;16.00;99.90;;;;;;5050348;28;20212;-61
2023/10/30 10:31:11;;;;;;;4.83;1.70;;;15.90;99.90;;;;;;5053952;28;20308;-62
2023/10/30 10:33:37;;;;;;;3.90;1.47;;;15.90;99.90;;;;;;5051393;28;20206;-59
2023/10/30 10:36:04;;;;;;;1.60;1.00;;;16.10;99.90;;;;;;5052870;28;20201;-58
2023/10/30 10:38:33;;;;;;;4.17;1.20;;;16.10;99.90;;;;;;5054161;28;20198;-58
2023/10/30 10:40:59;;;;;;;5.47;1.43;;;16.30;99.90;;;;;;5053996;28;20376;-58
2023/10/30 10:43:26;;;;;;;3.20;1.77;;;16.30;99.90;;;;;;5049180;28;20299;-59
2023/10/30 10:45:53;;;;;;;3.53;1.27;;;16.30;99.90;;;;;;5052302;28;20194;-58
2023/10/30 10:48:21;;;;;;;2.90;1.57;;;16.30;99.90;;;;;;5055547;28;20263;-59
2023/10/30 10:50:47;;;;;;;2.90;1.60;;;16.20;99.90;;;;;;5052184;28;20191;-58
2023/10/30 10:53:13;;;;;;;3.10;1.30;;;16.30;99.90;;;;;;5053967;28;20213;-61
2023/10/30 10:55:47;;;;;;;4.10;1.23;;;16.30;99.90;;;;;;5045373;28;20209;-59
2023/10/30 10:58:24;;;;;;;7.13;1.33;;;16.30;99.90;;;;;;5049866;28;20306;-59
2023/10/30 11:00:51;;;;;;;3.50;1.20;;;16.10;99.90;;;;;;5054478;28;20271;-60
2023/10/30 11:03:18;;;;;;;2.83;1.50;;;16.00;99.90;;;;;;5049826;28;20301;-59
2023/10/30 11:05:47;;;;;;;1.80;0.97;;;16.00;99.90;;;;;;5047387;28;20565;-61
2023/10/30 11:08:38;;;;;;;6.83;1.40;;;16.00;99.90;;;;;;5054101;28;20221;-60
2023/10/30 11:11:25;;;;;;;3.67;1.20;;;15.90;99.90;;;;;;5047678;28;20194;-61
2023/10/30 11:14:00;;;;;;;7.83;1.50;;;16.00;99.90;;;;;;5045587;28;20198;-59
2023/10/30 11:16:46;;;;;;;4.20;1.00;;;16.50;99.90;;;;;;5051523;28;20198;-59
2023/10/30 11:19:12;;;;;;;4.87;2.20;;;17.20;99.90;;;;;;5045718;28;20216;-59
2023/10/30 11:21:39;;;;;;;4.07;1.40;;;17.40;99.90;;;;;;5048863;28;20237;-63
2023/10/30 11:24:05;;;;;;;3.47;1.03;;;17.30;99.90;;;;;;5047321;28;20202;-58
2023/10/30 11:26:37;;;;;;;2.37;0.93;;;17.30;99.90;;;;;;5049537;28;20735;-59
2023/10/30 11:29:09;;;;;;;2.83;1.20;;;17.40;99.90;;;;;;5045795;28;20555;-59
2023/10/30 11:32:01;;;;;;;2.67;1.83;;;17.40;99.90;;;;;;5050048;28;20211;-60
2023/10/30 11:34:34;;;;;;;4.17;1.40;;;17.60;99.90;;;;;;5049275;28;20662;-59
2023/10/30 11:37:04;;;;;;;2.30;1.30;;;17.90;99.90;;;;;;5052745;28;20203;-58
2023/10/30 11:39:34;;;;;;;5.30;1.63;;;18.70;99.90;;;;;;5044690;28;20196;-62
2023/10/30 11:42:00;;;;;;;3.50;1.33;;;19.20;99.90;;;;;;5048612;28;20221;-61
2023/10/30 11:44:32;;;;;;;4.80;1.00;;;19.20;99.90;;;;;;5047271;28;20208;-60
2023/10/30 11:46:58;;;;;;;6.13;1.20;;;19.20;99.90;;;;;;5051735;28;20205;-61
2023/10/30 11:49:33;;;;;;;1.67;1.10;;;18.60;99.90;;;;;;5048689;28;20276;-61
2023/10/30 11:51:59;;;;;;;3.60;1.47;;;18.40;99.90;;;;;;5051619;28;20201;-60
2023/10/30 11:54:32;;;;;;;4.40;1.27;;;18.10;99.90;;;;;;5053124;28;20209;-60
2023/10/30 11:57:01;;;;;;;3.73;1.30;;;17.80;99.90;;;;;;5050471;28;20397;-60
2023/10/30 11:59:28;;;;;;;2.33;1.00;;;17.70;99.90;;;;;;5050312;28;20913;-61
2023/10/30 12:01:56;;;;;;;3.37;1.53;;;17.90;99.90;;;;;;5051031;28;20301;-60
2023/10/30 12:04:22;;;;;;;2.37;1.50;;;18.50;99.90;;;;;;5050610;28;20212;-61
2023/10/30 12:06:48;;;;;;;3.43;1.50;;;18.70;99.90;;;;;;5048862;28;20213;-59
2023/10/30 12:09:14;;;;;;;2.87;1.40;;;19.40;99.90;;;;;;5047742;28;20204;-60
2023/10/30 12:11:40;;;;;;;5.13;1.57;;;19.90;99.90;;;;;;5049124;28;20211;-60
2023/10/30 12:14:06;;;;;;;3.70;0.93;;;20.30;99.90;;;;;;5048257;28;20299;-60
2023/10/30 12:16:34;;;;;;;5.07;1.80;;;20.70;99.90;;;;;;5049162;28;20277;-60
2023/10/30 12:19:00;;;;;;;5.57;1.87;;;20.40;99.90;;;;;;5048345;28;20325;-60
2023/10/30 12:21:26;;;;;;;2.73;1.47;;;20.50;99.90;;;;;;5048831;28;20795;-60
2023/10/30 12:23:53;;;;;;;5.17;1.60;;;20.00;99.90;;;;;;5051419;28;20216;-60
2023/10/30 12:26:19;;;;;;;2.83;1.47;;;20.00;99.90;;;;;;5047677;28;20212;-59
2023/10/30 12:28:44;;;;;;;2.77;1.13;;;19.40;99.90;;;;;;5044783;28;20209;-61
2023/10/30 12:31:20;;;;;;;4.60;1.27;;;19.50;99.90;;;;;;5051879;28;20196;-58
2023/10/30 12:33:46;;;;;;;1.60;0.93;;;19.50;99.90;;;;;;5052602;28;20786;-59
2023/10/30 12:36:13;;;;;;;4.03;1.57;;;19.80;99.90;;;;;;5051689;28;20225;-60
2023/10/30 12:38:38;;;;;;;4.33;1.47;;;20.00;99.90;;;;;;5048579;28;20204;-58
2023/10/30 12:41:07;;;;;;;2.33;1.50;;;20.50;99.90;;;;;;5051580;28;21022;-59
2023/10/30 12:43:39;;;;;;;6.40;1.33;;;20.70;99.90;;;;;;5051187;28;20256;-61
2023/10/30 12:46:06;;;;;;;2.63;1.23;;;20.50;99.90;;;;;;5047620;28;20229;-67